Latest Weather Observations for Mandora

IDW60801

Issued at 10:43 pm WST Friday 23 April 2021 (issued every 10 minutes, with the page automatically refreshed every 10 minutes)

About weather observations | Map of weather stations | Latest weather observations for WA | Other Formats
Station Details ID: 004019 Name: MANDORA Lat: -19.74 Lon: 120.84 Height: 7.5 m
Data from the previous 72 hours. | See also: Recent months at Mandora
Date/Time
WST
Temp
°C
App
Temp
°C
Dew
Point
°C
Rel
Hum
%
Delta-T
°C
Wind Press
QNH
hPa
Press
MSL
hPa
Rain since
9am
mm
Dir  Spd
km/h
Gust
km/h
Spd
kts
Gust
kts
23/10:30pm 23.4 19.7 4.4 29 9.4 SSE 13 19 7 10 1014.1 1014.0 0.0
23/10:00pm 23.8 20.1 4.7 29 9.5 SSE 13 20 7 11 1014.1 1014.0 0.0
23/09:30pm 24.2 20.7 5.5 30 9.5 SSE 13 17 7 9 1014.2 1014.1 0.0
23/09:00pm 20.6 18.2 7.2 42 6.8 S 9 15 5 8 1014.3 1014.2 0.0
23/08:30pm 21.2 19.8 9.4 47 6.3 SW 7 9 4 5 1014.0 1013.9 0.0
23/08:00pm 22.9 21.8 10.7 46 6.7 WSW 7 9 4 5 1013.7 1013.6 0.0
23/07:30pm 23.6 22.7 12.6 50 6.3 WSW 9 11 5 6 1013.3 1013.2 0.0
23/07:00pm 24.6 24.1 12.2 46 7.1 SW 6 11 3 6 1012.9 1012.8 0.0
23/06:30pm 26.2 25.8 13.0 44 7.7 SW 7 11 4 6 1012.6 1012.5 0.0
23/06:00pm 27.7 27.0 13.3 41 8.5 SW 9 11 5 6 1012.2 1012.1 0.0
23/05:30pm 29.4 28.9 12.8 36 9.8 WSW 7 13 4 7 1011.9 1011.8 0.0
23/05:00pm 31.9 30.2 10.0 26 12.5 NW 9 13 5 7 1011.7 1011.6 0.0
23/04:30pm 34.6 33.5 9.8 22 14.3 W 6 11 3 6 1011.4 1011.3 0.0
23/04:00pm 35.5 33.2 4.9 15 16.4 N 6 11 3 6 1011.1 1011.0 0.0
23/03:30pm 35.3 31.5 1.6 12 17.1 SE 11 20 6 11 1010.9 1010.8 0.0
23/03:00pm 36.1 32.4 2.2 12 17.5 SE 11 20 6 11 1010.9 1010.8 0.0
23/02:30pm 36.0 31.5 2.1 12 17.4 SE 15 26 8 14 1011.1 1011.0 0.0
23/02:00pm 36.8 32.6 3.9 13 17.5 E 15 30 8 16 1011.5 1011.4 0.0
23/01:30pm 36.1 32.2 3.3 13 17.2 E 13 26 7 14 1011.9 1011.8 0.0
23/01:00pm 36.1 31.4 1.0 11 17.7 E 15 26 8 14 1012.3 1012.2 0.0
23/12:30pm 36.0 30.9 0.9 11 17.7 E 17 26 9 14 1012.7 1012.6 0.0
23/12:00pm 36.4 31.6 2.5 12 17.6 E 17 28 9 15 1013.3 1013.2 0.0
23/11:30am 35.0 29.1 1.4 12 17.0 ESE 22 41 12 22 1013.9 1013.8 0.0
23/11:00am 34.8 29.4 2.3 13 16.6 E 20 41 11 22 1014.3 1014.2 0.0
23/10:30am 34.0 28.7 1.7 13 16.3 ESE 19 30 10 16 1014.6 1014.5 0.0
23/10:00am 32.8 27.1 2.8 15 15.3 ESE 22 39 12 21 1014.9 1014.8 0.0
23/09:30am 31.1 24.9 2.3 16 14.4 ESE 24 37 13 20 1015.0 1014.9 0.0
23/09:00am 30.2 24.1 2.5 17 13.8 ESE 24 41 13 22 1015.0 1014.9 0.0
23/08:30am 28.0 22.9 3.0 20 12.4 ESE 19 32 10 17 1015.0 1014.9 0.0
23/08:00am 25.4 20.2 2.2 22 11.1 ESE 19 30 10 16 1014.8 1014.7 0.0
23/07:30am 23.8 18.3 2.0 24 10.3 SE 20 30 11 16 1014.8 1014.7 0.0
23/07:00am 22.8 17.9 1.8 25 9.8 SE 17 24 9 13 1014.4 1014.3 0.0
23/06:30am 21.8 16.7 0.9 25 9.5 SE 17 26 9 14 1014.1 1014.0 0.0
23/06:00am 21.1 16.4 0.9 26 9.2 SE 15 22 8 12 1013.7 1013.6 0.0
23/05:30am 21.0 16.3 0.8 26 9.1 SE 15 22 8 12 1013.2 1013.1 0.0
23/05:00am 21.5 16.4 0.7 25 9.4 SE 17 26 9 14 1012.9 1012.8 0.0
23/04:30am 22.2 17.4 0.1 23 10.0 SE 15 24 8 13 1012.9 1012.8 0.0
23/04:00am 22.6 17.7 -0.2 22 10.3 SE 15 24 8 13 1012.8 1012.7 0.0
23/03:30am 22.8 18.3 0.0 22 10.3 SE 13 20 7 11 1012.7 1012.6 0.0
23/03:00am 23.1 18.6 -0.4 21 10.6 SE 13 22 7 12 1012.8 1012.7 0.0
23/02:30am 23.0 18.5 -0.5 21 10.5 SE 13 20 7 11 1012.8 1012.7 0.0
23/02:00am 23.4 18.9 -0.1 21 10.7 SE 13 19 7 10 1013.0 1012.9 0.0
23/01:30am 23.8 19.3 -0.5 20 11.0 SSE 13 19 7 10 1013.1 1013.0 0.0
23/01:00am 24.1 19.6 -0.2 20 11.1 SE 13 20 7 11 1013.2 1013.1 0.0
23/12:30am 24.0 19.1 -0.3 20 11.0 SE 15 24 8 13 1013.5 1013.4 0.0
23/12:00am 24.5 20.0 -0.6 19 11.4 SE 13 20 7 11 1013.8 1013.7 0.0
 
Date/Time
WST
Temp
°C
App
Temp
°C
Dew
Point
°C
Rel
Hum
%
Delta-T
°C
Wind Press
QNH
hPa
Press
MSL
hPa
Rain since
9am
mm
Dir  Spd
km/h
Gust
km/h
Spd
kts
Gust
kts
22/11:30pm 24.3 19.8 -0.1 20 11.1 SSE 13 19 7 10 1013.9 1013.8 0.0
22/11:00pm 21.9 17.9 0.4 24 9.7 SSE 11 15 6 8 1014.0 1013.9 0.0
22/10:30pm 21.2 16.9 1.0 26 9.2 SSE 13 17 7 9 1014.1 1014.0 0.0
22/10:00pm 19.6 16.3 2.5 32 7.9 SE 9 13 5 7 1014.1 1014.0 0.0
22/09:30pm 17.9 15.4 4.8 42 6.3 SSE 7 9 4 5 1014.3 1014.2 0.0
22/09:00pm 19.6 17.2 4.5 37 7.3 SSE 6 9 3 5 1014.3 1014.2 0.0
22/08:30pm 22.5 19.4 3.6 29 9.1 SSE 9 13 5 7 1014.2 1014.1 0.0
22/08:00pm 23.6 20.1 3.5 27 9.8 SSE 11 13 6 7 1013.8 1013.7 0.0
22/07:30pm 24.3 21.1 3.0 25 10.3 SSE 9 13 5 7 1013.4 1013.3 0.0
22/07:00pm 24.3 21.0 2.5 24 10.5 SE 9 13 5 7 1013.0 1012.9 0.0
22/06:30pm 24.8 21.5 2.3 23 10.8 SE 9 11 5 6 1012.6 1012.5 0.0
22/06:00pm 27.1 24.3 2.9 21 11.9 SSE 7 9 4 5 1012.3 1012.2 0.0
22/05:30pm 31.3 27.9 1.6 15 14.7 SE 9 13 5 7 1011.9 1011.8 0.0
22/05:00pm 33.3 28.5 0.1 12 16.2 SE 15 24 8 13 1011.7 1011.6 0.0
22/04:30pm 34.3 29.6 0.8 12 16.7 SE 15 24 8 13 1011.3 1011.2 0.0
22/04:00pm 34.7 29.7 -1.4 10 17.4 SE 15 26 8 14 1011.0 1010.9 0.0
22/03:30pm 35.9 31.6 0.9 11 17.6 SE 13 24 7 13 1011.0 1010.9 0.0
22/03:00pm 35.8 31.5 0.8 11 17.6 SE 13 26 7 14 1011.1 1011.0 0.0
22/02:30pm 35.8 31.3 -0.5 10 17.9 ESE 13 26 7 14 1011.3 1011.2 0.0
22/02:00pm 36.1 31.4 -1.7 9 18.3 SE 13 24 7 13 1011.6 1011.5 0.0
22/01:30pm 35.5 30.6 -0.8 10 17.8 SE 15 28 8 15 1012.0 1011.9 0.0
22/01:00pm 36.0 30.3 -0.4 10 18.0 ESE 19 33 10 18 1012.5 1012.4 0.0
22/12:30pm 35.9 31.0 -0.5 10 17.9 ESE 15 30 8 16 1013.0 1012.9 0.0
22/12:00pm 35.7 30.0 -0.6 10 17.8 ESE 19 30 10 16 1013.5 1013.4 0.0
22/11:30am 35.6 30.1 0.6 11 17.5 ESE 19 30 10 16 1014.0 1013.9 0.0
22/11:00am 34.9 29.3 1.3 12 16.9 ESE 20 37 11 20 1014.4 1014.3 0.0
22/10:30am 34.2 28.7 0.8 12 16.6 ESE 19 33 10 18 1014.9 1014.8 0.0
22/10:00am 32.9 27.4 1.9 14 15.6 ESE 20 39 11 21 1015.3 1015.2 0.0
22/09:30am 31.3 25.2 0.6 14 14.9 ESE 22 43 12 23 1015.5 1015.4 0.0
22/09:00am 29.7 24.5 3.6 19 13.2 ESE 20 35 11 19 1015.7 1015.6 0.0
22/08:30am 28.0 23.9 4.3 22 12.0 ESE 15 28 8 15 1015.8 1015.7 0.0
22/08:00am 26.1 20.9 2.7 22 11.4 SE 19 32 10 17 1015.6 1015.5 0.0
22/07:30am 24.3 19.1 2.5 24 10.5 SE 19 32 10 17 1015.5 1015.4 0.0
22/07:00am 22.4 18.0 2.5 27 9.4 SE 15 30 8 16 1015.4 1015.3 0.0
22/06:30am 20.6 16.9 2.4 30 8.5 SE 11 20 6 11 1015.2 1015.1 0.0
22/06:00am 19.7 15.6 2.1 31 8.1 SE 13 19 7 10 1015.0 1014.9 0.0
22/05:30am 20.5 16.4 2.3 30 8.4 SE 13 20 7 11 1014.7 1014.6 0.0
22/05:00am 21.3 17.2 2.1 28 8.9 ESE 13 22 7 12 1014.4 1014.3 0.0
22/04:30am 22.6 17.3 1.6 25 9.8 SE 19 26 10 14 1014.0 1013.9 0.0
22/04:00am 22.4 17.4 1.4 25 9.7 SE 17 28 9 15 1013.9 1013.8 0.0
22/03:30am 21.8 17.7 2.0 27 9.2 SE 13 20 7 11 1014.0 1013.9 0.0
22/03:00am 21.3 17.6 2.1 28 8.9 SE 11 17 6 9 1014.0 1013.9 0.0
22/02:30am 20.7 17.0 2.5 30 8.5 SE 11 15 6 8 1014.0 1013.9 0.0
22/02:00am 20.8 17.2 3.1 31 8.4 SE 11 17 6 9 1014.0 1013.9 0.0
22/01:30am 20.1 16.5 2.9 32 8.1 SE 11 17 6 9 1014.0 1013.9 0.0
22/01:00am 21.8 18.7 3.5 30 8.8 ESE 9 17 5 9 1014.2 1014.1 0.0
22/12:30am 23.6 19.3 3.0 26 9.9 SE 15 20 8 11 1014.3 1014.2 0.0
22/12:00am 23.6 19.7 3.5 27 9.8 SE 13 20 7 11 1014.5 1014.4 0.0
 
Date/Time
WST
Temp
°C
App
Temp
°C
Dew
Point
°C
Rel
Hum
%
Delta-T
°C
Wind Press
QNH
hPa
Press
MSL
hPa
Rain since
9am
mm
Dir  Spd
km/h
Gust
km/h
Spd
kts
Gust
kts
21/11:30pm 23.4 19.9 3.4 27 9.7 SE 11 17 6 9 1014.6 1014.5 0.0
21/11:00pm 23.9 20.8 3.8 27 9.8 ESE 9 13 5 7 1014.9 1014.8 0.0
21/10:30pm 25.8 21.8 3.1 23 11.1 SE 13 20 7 11 1014.9 1014.8 0.0
21/10:00pm 26.2 22.3 3.5 23 11.2 SE 13 20 7 11 1014.9 1014.8 0.0
21/09:30pm 27.3 23.1 3.7 22 11.8 SE 15 26 8 14 1014.7 1014.6 0.0
21/09:00pm 26.9 23.2 4.6 24 11.3 SE 13 20 7 11 1014.8 1014.7 0.0
21/08:30pm 25.2 22.7 8.2 34 9.1 S 11 15 6 8 1014.6 1014.5 0.0
21/08:00pm 24.7 25.2 15.6 57 5.5 SSW 7 11 4 6 1014.4 1014.3 0.0
21/07:30pm 25.2 26.0 17.4 62 4.9 SSW 9 15 5 8 1014.0 1013.9 0.0
21/07:00pm 25.8 27.0 17.4 59 5.2 S 7 13 4 7 1013.4 1013.3 0.0
21/06:30pm 26.1 27.3 18.2 61 5.0 WSW 9 13 5 7 1013.0 1012.9 0.0
21/06:00pm 27.9 27.4 15.9 48 7.4 WNW 13 24 7 13 1012.5 1012.4 0.0
21/05:30pm 29.8 29.6 14.7 39 9.2 NW 9 15 5 8 1012.2 1012.1 0.0
21/05:00pm 32.0 31.4 11.7 28 11.9 NW 6 11 3 6 1011.8 1011.7 0.0
21/04:30pm 33.0 32.3 13.1 30 12.0 ENE 9 17 5 9 1011.6 1011.5 0.0
21/04:00pm 36.1 32.0 2.2 12 17.5 SE 13 20 7 11 1011.2 1011.1 0.0
21/03:30pm 36.3 32.6 2.4 12 17.5 E 11 20 6 11 1011.2 1011.1 0.0
21/03:00pm 36.5 32.2 1.3 11 17.9 ESE 13 20 7 11 1011.2 1011.1 0.0
21/02:30pm 36.7 32.9 3.8 13 17.4 E 13 26 7 14 1011.4 1011.3 0.0
21/02:00pm 36.6 31.6 1.4 11 18.0 SE 17 30 9 16 1011.7 1011.6 0.0
21/01:30pm 36.0 30.9 0.9 11 17.7 SE 17 35 9 19 1012.0 1011.9 0.0
21/01:00pm 36.5 31.7 2.5 12 17.6 ESE 17 43 9 23 1012.5 1012.4 0.0
21/12:30pm 35.7 31.4 3.0 13 17.0 E 15 32 8 17 1012.9 1012.8 0.0
21/12:00pm 35.5 30.8 0.6 11 17.5 ESE 15 26 8 14 1013.4 1013.3 0.0
21/11:30am 35.1 30.3 2.6 13 16.7 E 17 30 9 16 1014.0 1013.9 0.0
21/11:00am 34.2 29.5 2.9 14 16.1 E 17 30 9 16 1014.4 1014.3 0.0
21/10:30am 33.6 28.9 3.4 15 15.6 E 17 24 9 13 1014.9 1014.8 0.0
21/10:00am 33.0 29.1 5.5 18 14.7 ESE 15 26 8 14 1015.2 1015.1 0.0
21/09:30am 32.3 28.3 5.0 18 14.4 ESE 15 30 8 16 1015.3 1015.2 0.0
21/09:00am 30.3 26.2 6.2 22 12.8 ESE 17 26 9 14 1015.3 1015.2 0.0
21/08:30am 28.2 24.6 8.5 29 10.8 ESE 17 26 9 14 1015.1 1015.0 0.0
21/08:00am 25.8 22.1 7.9 32 9.5 SE 17 28 9 15 1015.0 1014.9 0.0
21/07:30am 24.1 21.3 8.5 37 8.3 SE 13 24 7 13 1014.8 1014.7 0.0
21/07:00am 21.5 18.7 8.4 43 6.9 SE 13 17 7 9 1014.4 1014.3 0.0
21/06:30am 19.2 17.1 8.2 49 5.7 ESE 9 13 5 7 1013.9 1013.8 0.0
21/06:00am 20.1 17.8 7.5 44 6.5 SE 9 15 5 8 1013.6 1013.5 0.0
21/05:30am 21.3 18.6 7.2 40 7.2 SE 11 19 6 10 1013.2 1013.1 0.0
21/05:00am 21.6 18.5 7.1 39 7.4 SE 13 17 7 9 1012.8 1012.7 0.0
21/04:30am 22.1 19.0 7.1 38 7.7 SE 13 20 7 11 1012.6 1012.5 0.0
21/04:00am 22.6 19.4 6.8 36 8.1 SE 13 20 7 11 1012.3 1012.2 0.0
21/03:30am 22.6 19.4 6.8 36 8.1 SE 13 19 7 10 1012.1 1012.0 0.0
21/03:00am 23.0 19.8 6.7 35 8.4 SE 13 22 7 12 1011.9 1011.8 0.0
21/02:30am 21.8 18.7 7.2 39 7.5 SE 13 19 7 10 1011.9 1011.8 0.0
21/02:00am 19.9 17.8 8.3 47 6.0 SE 9 13 5 7 1011.9 1011.8 0.0
21/01:30am 16.7 15.8 11.4 71 2.9 SSE 7 11 4 6 1012.0 1011.9 0.0
21/01:00am 18.3 17.9 13.0 71 3.0 SSW 7 9 4 5 1012.4 1012.3 0.0
21/12:30am 19.0 18.7 13.4 70 3.2 SW 7 9 4 5 1012.7 1012.6 0.0
21/12:00am 20.4 19.7 14.3 68 3.5 SW 11 13 6 7 1012.9 1012.8 0.0
 
Date/Time
WST
Temp
°C
App
Temp
°C
Dew
Point
°C
Rel
Hum
%
Delta-T
°C
Wind Press
QNH
hPa
Press
MSL
hPa
Rain since
9am
mm
Dir  Spd
km/h
Gust
km/h
Spd
kts
Gust
kts
20/11:30pm 21.2 20.6 14.6 66 3.9 SW 11 13 6 7 1013.2 1013.1 0.0
20/11:00pm 22.1 21.9 14.7 63 4.4 SW 9 11 5 6 1013.4 1013.3 0.0

Other formats

Comma delimited format used in spreadsheet applications
http://www.bom.gov.au/fwo/IDW60801/IDW60801.94200.axf

JavaScript Object Notation format (JSON) in row-major order
http://www.bom.gov.au/fwo/IDW60801/IDW60801.94200.json

Data quality

Most of these data are generated automatically and are frequently updated. Quality checks on data are not normally performed. It is possible for incorrect values to appear. Refer to information at About Latest Weather Observations and please check the disclaimer before using these data.